Terminal Aerodrome Forecast
Issued by NWS Denver/Boulder, CO

Home | Current Version | Previous Version | Graphics & Text | Print | Product List | Glossary On
Versions: 1 2 3 4 5 6 7 8 9 10 11 12 13 14 15 16 17 18 19 20 21 22 23 24 25 26 27 28 29 30 31 32 33 34 35 36 37 38 39 40 41 42 43 44 45 46 47 48 49 50
000
FTUS45 KBOU 061518 AAB
TAFDEN
TAF AMD
KDEN 061518Z 0615/0718 27005KT P6SM SCT040 OVC060
     FM062000 33010KT P6SM VCTS SCT040CB BKN080 OVC120
      TEMPO 0621/0701 VRB15G25KT 4SM SHRA BKN030
     FM070200 03010KT P6SM SCT015 OVC030
     FM070600 04006KT P6SM VCFG SCT006 OVC010
     FM071100 12004KT 1SM BR OVC004
     FM071500 15006KT 3SM BR BKN006 OVC010=

USA.gov is the U.S. government's official web portal to all federal, state and local government web resources and services.